Time;durP1;ratioP1;P1;durP2;ratioP2;P2;SDS_P1;SDS_P2;PMS_P1;PMS_P2;Temp;Humidity;BMP_temperature;BMP_pressure;BME280_temperature;BME280_humidity;BME280_pressure;Samples;Min_cycle;Max_cycle;Signal;HPM_P1;HPM_P2
2021/11/08 00:01:01;;;;;;;;;;;;;;;;;;;;;
2021/11/08 00:03:33;;;;;;;709.57;661.20;;;7.70;99.90;;;;;;5013601;28;20792;-86
2021/11/08 00:06:16;;;;;;;697.10;652.33;;;7.80;99.90;;;;;;5013834;28;20496;-86
2021/11/08 00:08:44;;;;;;;690.80;646.60;;;7.90;99.90;;;;;;5015025;28;20937;-86
2021/11/08 00:11:21;;;;;;;687.70;646.90;;;7.90;99.90;;;;;;5014807;28;20928;-86
2021/11/08 00:13:54;;;;;;;690.43;650.67;;;7.90;99.90;;;;;;5014863;28;20497;-86
2021/11/08 00:17:04;;;;;;;670.90;634.10;;;7.90;99.90;;;;;;5014859;28;20851;-86
2021/11/08 00:22:40;;;;;;;650.27;616.87;;;7.90;99.90;;;;;;5013661;28;20481;-86
2021/11/08 00:27:57;;;;;;;654.17;619.37;;;7.80;99.90;;;;;;5003521;28;20456;-86
2021/11/08 00:30:46;;;;;;;649.47;614.97;;;7.80;99.90;;;;;;5014816;28;20480;-86
2021/11/08 00:33:30;;;;;;;661.23;625.83;;;7.60;99.90;;;;;;5014645;28;20816;-86
2021/11/08 00:36:00;;;;;;;668.50;630.70;;;7.60;99.90;;;;;;5013404;28;20544;-85
2021/11/08 00:38:31;;;;;;;681.33;642.87;;;7.60;99.90;;;;;;5014756;28;20468;-85
2021/11/08 00:41:04;;;;;;;693.87;654.47;;;7.50;99.90;;;;;;5014617;28;20453;-85
2021/11/08 00:43:39;;;;;;;692.83;652.87;;;7.50;99.90;;;;;;5014358;28;20503;-85
2021/11/08 00:46:14;;;;;;;713.77;669.70;;;7.30;99.90;;;;;;5014309;28;20588;-85
2021/11/08 00:49:09;;;;;;;727.07;681.17;;;7.30;99.90;;;;;;5013374;28;20487;-85
2021/11/08 00:51:48;;;;;;;736.93;688.37;;;7.30;99.90;;;;;;5014153;28;20457;-85
2021/11/08 00:54:19;;;;;;;742.53;692.67;;;7.20;99.90;;;;;;5014204;28;20461;-85
2021/11/08 00:56:55;;;;;;;744.40;693.30;;;7.10;99.90;;;;;;5014242;28;20802;-86
2021/11/08 00:59:28;;;;;;;756.37;704.30;;;7.20;99.90;;;;;;5014058;28;20455;-86
2021/11/08 01:02:06;;;;;;;753.33;700.77;;;7.10;99.90;;;;;;5014001;28;20850;-85
2021/11/08 01:04:37;;;;;;;752.77;700.00;;;7.10;99.90;;;;;;5012814;28;20457;-85
2021/11/08 01:07:12;;;;;;;753.30;700.20;;;7.00;99.90;;;;;;5014052;28;20489;-86
2021/11/08 01:09:57;;;;;;;758.77;704.43;;;7.00;99.90;;;;;;5001282;28;20472;-86
2021/11/08 01:12:44;;;;;;;761.60;705.10;;;6.90;99.90;;;;;;5014092;28;20484;-85
2021/11/08 01:15:19;;;;;;;752.50;696.13;;;7.00;99.90;;;;;;5013903;28;20463;-86
2021/11/08 01:17:50;;;;;;;751.70;692.40;;;6.90;99.90;;;;;;5013619;28;20963;-85
2021/11/08 01:20:45;;;;;;;753.60;696.13;;;6.90;99.90;;;;;;5012836;28;20541;-86
2021/11/08 01:23:26;;;;;;;755.60;698.83;;;7.00;99.90;;;;;;5013737;28;20815;-85
2021/11/08 01:25:58;;;;;;;745.37;690.27;;;7.10;99.90;;;;;;5013582;28;20487;-84
2021/11/08 01:28:49;;;;;;;750.20;695.57;;;7.10;99.90;;;;;;5013517;28;20940;-85
2021/11/08 01:31:30;;;;;;;;;;;;;;;;;;;;;
2021/11/08 01:34:09;;;;;;;737.10;686.30;;;7.20;99.90;;;;;;4992555;28;20848;-86
2021/11/08 01:36:51;;;;;;;736.17;685.60;;;7.30;99.90;;;;;;4993677;28;20470;-86
2021/11/08 01:39:24;;;;;;;736.83;687.23;;;7.30;99.90;;;;;;4993663;28;20496;-86
2021/11/08 01:41:52;;;;;;;733.70;684.80;;;7.30;99.90;;;;;;4993885;28;20802;-86
2021/11/08 01:44:22;;;;;;;728.03;678.27;;;7.20;99.90;;;;;;4993995;28;20464;-85
2021/11/08 01:46:51;;;;;;;718.83;671.37;;;7.30;99.90;;;;;;4993647;28;20521;-86
2021/11/08 01:49:29;;;;;;;;;;;;;;;;;;;;;
2021/11/08 01:52:05;;;;;;;714.33;667.03;;;7.40;99.90;;;;;;4993492;28;20454;-85
2021/11/08 01:54:41;;;;;;;715.43;668.77;;;7.40;99.90;;;;;;4993717;28;20466;-85
2021/11/08 01:57:09;;;;;;;718.10;671.00;;;7.40;99.90;;;;;;4993620;28;20474;-86
2021/11/08 01:59:38;;;;;;;703.73;658.47;;;7.40;99.90;;;;;;4993450;28;20454;-85
2021/11/08 02:02:06;;;;;;;694.70;650.07;;;7.40;99.90;;;;;;4993857;28;20847;-85
2021/11/08 02:04:39;;;;;;;685.30;642.90;;;7.60;99.90;;;;;;4992404;28;20795;-86
2021/11/08 02:07:14;;;;;;;680.90;640.47;;;7.50;99.90;;;;;;4993338;28;20493;-85
2021/11/08 02:09:43;;;;;;;680.50;640.57;;;7.50;99.90;;;;;;4993663;28;20465;-85
2021/11/08 02:12:15;;;;;;;658.77;622.60;;;7.50;99.90;;;;;;4993429;28;20466;-85
2021/11/08 02:14:57;;;;;;;661.93;625.97;;;7.60;99.90;;;;;;4993346;28;20550;-85
2021/11/08 02:17:28;;;;;;;650.00;614.30;;;7.70;99.90;;;;;;4993331;28;20461;-85
2021/11/08 02:20:13;;;;;;;647.43;614.30;;;7.80;99.90;;;;;;4992490;28;20442;-85
2021/11/08 02:22:49;;;;;;;633.37;601.33;;;7.70;99.90;;;;;;4993167;28;20458;-86
2021/11/08 02:25:19;;;;;;;633.17;601.20;;;7.70;99.90;;;;;;4993330;28;20932;-85
2021/11/08 02:28:00;;;;;;;624.60;592.40;;;7.80;99.90;;;;;;4993238;28;20465;-85
2021/11/08 02:30:36;;;;;;;623.30;593.03;;;7.80;99.90;;;;;;5004775;28;20501;-85
2021/11/08 02:33:13;;;;;;;634.27;603.80;;;7.70;99.90;;;;;;5012750;28;20457;-85
2021/11/08 02:35:44;;;;;;;633.33;601.57;;;7.80;99.90;;;;;;5011817;28;20465;-84
2021/11/08 02:38:17;;;;;;;641.00;609.53;;;7.70;99.90;;;;;;5012820;28;20460;-85
2021/11/08 02:40:54;;;;;;;631.97;601.17;;;7.80;99.90;;;;;;5012818;28;20461;-85
2021/11/08 02:43:35;;;;;;;;;;;;;;;;;;;;;
2021/11/08 02:46:10;;;;;;;629.97;599.87;;;7.70;99.90;;;;;;5011180;28;20485;-85
2021/11/08 02:48:48;;;;;;;634.37;603.07;;;7.90;99.90;;;;;;5012569;28;20457;-85
2021/11/08 02:51:29;;;;;;;629.70;598.33;;;7.80;99.90;;;;;;5016195;28;20461;-85
2021/11/08 02:54:14;;;;;;;;;;;;;;;;;;;;;
2021/11/08 02:56:41;;;;;;;629.57;598.87;;;7.70;99.90;;;;;;5006307;28;20452;-85
2021/11/08 03:00:01;;;;;;;648.53;616.77;;;7.70;99.90;;;;;;5016296;28;20459;-85
2021/11/08 03:02:40;;;;;;;655.20;621.20;;;7.80;99.90;;;;;;5016236;28;20484;-85
2021/11/08 03:05:11;;;;;;;656.00;622.40;;;7.70;99.90;;;;;;5015227;28;20932;-86
2021/11/08 03:07:43;;;;;;;661.13;626.87;;;7.80;99.90;;;;;;5016055;28;20834;-85
2021/11/08 03:10:31;;;;;;;;;;;;;;;;;;;;;
2021/11/08 03:13:14;;;;;;;675.10;640.00;;;7.80;99.90;;;;;;5015907;28;20488;-86
2021/11/08 03:15:54;;;;;;;690.07;651.87;;;7.80;99.90;;;;;;5016068;28;20461;-86
2021/11/08 03:18:39;;;;;;;691.17;652.87;;;7.70;99.90;;;;;;5016037;28;20885;-85
2021/11/08 03:21:18;;;;;;;690.33;651.30;;;7.80;99.90;;;;;;5015360;28;20809;-85
2021/11/08 03:23:59;;;;;;;690.47;652.27;;;7.70;99.90;;;;;;5015955;28;20465;-85
2021/11/08 03:29:12;;;;;;;696.40;658.10;;;7.70;99.90;;;;;;5015250;28;20912;-84
2021/11/08 03:31:42;;;;;;;710.50;669.67;;;7.70;99.90;;;;;;5014030;28;20457;-85
2021/11/08 03:34:18;;;;;;;710.03;669.27;;;7.80;99.90;;;;;;5014725;28;20459;-85
2021/11/08 03:36:49;;;;;;;716.40;673.70;;;7.70;99.90;;;;;;5015966;28;20457;-84
2021/11/08 03:39:21;;;;;;;726.57;683.67;;;7.60;99.90;;;;;;5015856;28;20453;-83
2021/11/08 03:41:51;;;;;;;721.30;679.43;;;7.70;99.90;;;;;;5014647;28;21046;-85
2021/11/08 03:44:19;;;;;;;722.63;680.37;;;7.70;99.90;;;;;;5015470;28;20512;-87
2021/11/08 03:46:48;;;;;;;731.67;688.57;;;7.60;99.90;;;;;;5015513;28;20531;-80
2021/11/08 03:49:15;;;;;;;727.40;684.80;;;7.70;99.90;;;;;;5014245;28;20840;-79
2021/11/08 03:51:45;;;;;;;733.37;689.77;;;7.70;99.90;;;;;;5015404;28;20464;-86
2021/11/08 03:57:33;;;;;;;743.70;698.30;;;7.60;99.90;;;;;;5013856;28;20580;-86
2021/11/08 04:00:40;;;;;;;746.03;700.57;;;7.60;99.90;;;;;;5015199;28;20516;-86
2021/11/08 04:03:35;;;;;;;;;;;;;;;;;;;;;
2021/11/08 04:13:26;;;;;;;;;;;;;;;;;;;;;
2021/11/08 04:16:28;;;;;;;740.83;696.97;;;7.70;99.90;;;;;;4915826;29;20513;-86
2021/11/08 04:25:33;;;;;;;770.33;721.93;;;7.50;99.90;;;;;;4915296;29;20462;-85
2021/11/08 04:28:01;;;;;;;772.93;723.77;;;7.60;99.90;;;;;;4954516;28;20466;-83
2021/11/08 04:31:07;;;;;;;;;;;;;;;;;;;;;
2021/11/08 04:33:43;;;;;;;775.67;726.07;;;7.70;99.90;;;;;;4954070;29;20475;-86
2021/11/08 04:39:20;;;;;;;773.77;724.47;;;7.50;99.90;;;;;;4983896;28;20449;-86
2021/11/08 04:54:13;;;;;;;759.43;710.50;;;7.60;99.90;;;;;;4994027;28;20452;-85
2021/11/08 05:31:15;;;;;;;669.47;634.37;;;7.80;99.90;;;;;;4951566;29;20464;-85
2021/11/08 05:34:14;;;;;;;669.67;633.33;;;7.80;99.90;;;;;;4952429;29;20538;-86
2021/11/08 05:42:33;;;;;;;610.70;579.63;;;7.90;99.90;;;;;;4925548;29;20517;-84
2021/11/08 05:45:21;;;;;;;562.97;536.97;;;8.00;99.90;;;;;;4953266;29;21030;-85
2021/11/08 05:48:53;;;;;;;;;;;;;;;;;;;;;
2021/11/08 05:51:54;;;;;;;529.03;505.23;;;8.10;99.90;;;;;;4850335;29;20466;-86
2021/11/08 06:49:25;;;;;;;654.40;619.07;;;7.60;99.90;;;;;;4955159;29;20868;-85
2021/11/08 06:51:56;;;;;;;642.40;609.30;;;7.70;99.90;;;;;;4955744;29;20448;-84
2021/11/08 06:54:34;;;;;;;650.83;616.83;;;7.70;99.90;;;;;;4996664;28;20471;-84
2021/11/08 06:57:20;;;;;;;631.73;598.73;;;7.80;99.90;;;;;;4962102;28;20497;-84
2021/11/08 06:59:50;;;;;;;609.33;579.13;;;7.80;99.90;;;;;;4996486;28;21029;-87
2021/11/08 07:02:20;;;;;;;596.67;567.97;;;7.90;99.90;;;;;;4996591;28;20905;-87
2021/11/08 07:04:49;;;;;;;570.73;543.20;;;7.90;99.90;;;;;;4995637;28;21032;-87
2021/11/08 07:07:16;;;;;;;562.17;535.17;;;7.90;99.90;;;;;;4997081;28;20482;-83
2021/11/08 07:09:48;;;;;;;562.30;535.80;;;7.90;99.90;;;;;;5015017;28;20544;-86
2021/11/08 07:12:17;;;;;;;562.77;536.17;;;7.90;99.90;;;;;;5015990;28;20868;-86
2021/11/08 07:15:08;;;;;;;;;;;;;;;;;;;;;
2021/11/08 07:17:36;;;;;;;515.10;492.13;;;7.90;99.90;;;;;;5015627;28;20480;-86
2021/11/08 07:20:04;;;;;;;487.70;466.63;;;8.00;99.90;;;;;;5014954;28;20467;-86
2021/11/08 07:22:30;;;;;;;477.67;454.07;;;8.00;99.90;;;;;;5015819;28;20531;-84
2021/11/08 07:24:57;;;;;;;480.83;459.30;;;8.00;99.90;;;;;;5015724;28;20457;-83
2021/11/08 07:27:25;;;;;;;499.60;476.33;;;8.00;99.90;;;;;;5015644;28;20538;-85
2021/11/08 07:29:52;;;;;;;518.57;494.77;;;8.10;99.90;;;;;;5015745;28;20461;-84
2021/11/08 07:32:19;;;;;;;487.53;465.20;;;8.10;99.90;;;;;;5015645;28;20852;-85
2021/11/08 07:34:47;;;;;;;521.60;498.30;;;8.10;99.90;;;;;;5014735;28;20937;-84
2021/11/08 07:37:14;;;;;;;517.17;492.80;;;8.10;99.90;;;;;;5015448;28;20453;-84
2021/11/08 07:39:43;;;;;;;444.80;423.53;;;8.20;99.90;;;;;;5015583;28;20867;-84
2021/11/08 07:42:10;;;;;;;405.03;388.03;;;8.20;99.90;;;;;;5015395;28;20833;-85
2021/11/08 07:44:37;;;;;;;425.03;407.43;;;8.20;99.30;;;;;;5015661;28;20949;-85
2021/11/08 07:47:15;;;;;;;402.47;384.57;;;8.30;99.50;;;;;;5014995;28;20539;-85
2021/11/08 07:49:42;;;;;;;373.87;357.77;;;8.40;98.80;;;;;;4994923;28;20493;-83
2021/11/08 07:52:14;;;;;;;358.93;343.47;;;8.40;98.90;;;;;;4995843;28;20458;-84
2021/11/08 07:54:41;;;;;;;320.70;307.33;;;8.30;97.70;;;;;;4995795;28;20450;-85
2021/11/08 07:57:27;;;;;;;302.90;290.43;;;8.40;97.40;;;;;;5007708;28;21062;-86
2021/11/08 08:03:28;;;;;;;292.13;280.93;;;8.50;97.10;;;;;;4983065;28;20462;-83
2021/11/08 08:06:26;;;;;;;243.37;232.27;;;8.60;96.90;;;;;;4993291;28;20508;-83
2021/11/08 08:12:14;;;;;;;222.37;212.77;;;8.60;95.70;;;;;;4944777;28;20512;-83
2021/11/08 08:15:09;;;;;;;252.90;241.17;;;8.60;95.80;;;;;;4995471;28;20801;-83
2021/11/08 08:17:41;;;;;;;184.03;174.03;;;8.70;95.90;;;;;;4995392;28;20451;-83
2021/11/08 08:20:14;;;;;;;222.23;212.47;;;8.70;95.30;;;;;;4994278;28;20458;-83
2021/11/08 08:23:07;;;;;;;238.77;227.87;;;8.70;95.50;;;;;;4995260;28;20454;-83
2021/11/08 08:32:25;;;;;;;149.83;142.43;;;8.80;94.90;;;;;;4951379;29;20456;-83
2021/11/08 08:35:17;;;;;;;139.33;132.43;;;8.80;94.40;;;;;;4953170;29;20620;-82
2021/11/08 08:46:16;;;;;;;100.83;94.97;;;9.10;93.50;;;;;;4801539;29;20883;-82
2021/11/08 08:53:04;;;;;;;45.33;36.80;;;9.20;92.30;;;;;;4762247;30;20884;-82
2021/11/08 10:34:08;;;;;;;36.27;9.00;;;14.70;50.60;;;;;;4803998;29;20459;-85
2021/11/08 10:37:07;;;;;;;31.10;9.67;;;14.60;49.50;;;;;;4815451;29;20550;-83
2021/11/08 14:23:03;;;;;;;;;;;;;;;;;;;;;
2021/11/08 16:04:01;;;;;;;32.67;10.57;;;9.90;72.30;;;;;;4856452;29;20560;-86
2021/11/08 16:06:53;;;;;;;;;;;;;;;;;;;;;
2021/11/08 16:09:31;;;;;;;;;;;;;;;;;;;;;
2021/11/08 16:12:01;;;;;;;27.88;9.95;;;9.80;72.80;;;;;;4975951;28;20866;-86
2021/11/08 16:15:04;;;;;;;;;;;;;;;;;;;;;
2021/11/08 16:18:06;;;;;;;;;;;;;;;;;;;;;
2021/11/08 16:30:28;;;;;;;20.37;8.43;;;9.90;70.40;;;;;;4733375;30;20498;-84
2021/11/08 16:36:25;;;;;;;38.77;10.13;;;9.80;72.10;;;;;;4904263;29;20454;-84
2021/11/08 16:38:53;;;;;;;28.10;10.27;;;9.70;73.70;;;;;;4916221;29;20472;-85
2021/11/08 16:44:27;;;;;;;27.17;13.33;;;9.60;77.60;;;;;;4915892;29;20541;-84
2021/11/08 16:47:08;;;;;;;26.33;13.37;;;9.60;77.60;;;;;;4923565;29;20974;-85
2021/11/08 16:50:01;;;;;;;26.53;12.90;;;9.50;77.50;;;;;;4933660;29;21147;-84
2021/11/08 16:52:57;;;;;;;;;;;;;;;;;;;;;
2021/11/08 16:55:27;;;;;;;33.97;30.47;;;9.40;77.50;;;;;;4931806;29;20476;-84
2021/11/08 16:58:01;;;;;;;30.23;18.73;;;9.40;83.00;;;;;;4960446;28;20482;-84
2021/11/08 17:00:38;;;;;;;36.00;24.63;;;9.20;81.20;;;;;;4994746;28;20461;-84
2021/11/08 17:03:08;;;;;;;41.97;26.40;;;9.30;82.00;;;;;;4994631;28;20533;-84
2021/11/08 17:05:49;;;;;;;;;;;;;;;;;;;;;
2021/11/08 17:08:39;;;;;;;55.27;50.77;;;9.30;83.00;;;;;;4992700;28;20454;-84
2021/11/08 17:14:04;;;;;;;66.30;59.63;;;9.20;87.10;;;;;;4980694;28;20861;-84
2021/11/08 17:16:47;;;;;;;;;;;;;;;;;;;;;
2021/11/08 17:19:21;;;;;;;96.63;89.63;;;9.20;87.90;;;;;;4958722;28;20446;-84
2021/11/08 17:22:38;;;;;;;;;;;;;;;;;;;;;
2021/11/08 17:25:21;;;;;;;;;;;;;;;;;;;;;
2021/11/08 17:28:25;;;;;;;56.37;51.47;;;9.00;90.10;;;;;;4993807;28;20446;-84
2021/11/08 17:31:19;;;;;;;38.13;34.17;;;9.10;89.10;;;;;;4994230;28;20800;-84
2021/11/08 17:33:59;;;;;;;36.70;23.20;;;9.00;87.10;;;;;;4992199;28;20457;-84
2021/11/08 17:36:51;;;;;;;44.87;40.93;;;9.00;85.90;;;;;;4993905;28;20838;-84
2021/11/08 17:40:23;;;;;;;;;;;;;;;;;;;;;
2021/11/08 17:43:11;;;;;;;42.57;38.57;;;9.00;87.70;;;;;;4932042;28;20500;-83
2021/11/08 17:45:47;;;;;;;41.13;37.00;;;9.00;87.70;;;;;;4914666;29;20490;-83
2021/11/08 17:48:38;;;;;;;46.40;41.97;;;9.00;87.10;;;;;;4914742;29;20457;-84
2021/11/08 17:51:12;;;;;;;62.20;58.30;;;8.90;87.10;;;;;;4913887;29;20466;-83
2021/11/08 17:53:43;;;;;;;53.43;49.37;;;9.00;88.80;;;;;;4914684;29;20518;-84
2021/11/08 17:56:22;;;;;;;;;;;;;;;;;;;;;
2021/11/08 17:58:55;;;;;;;32.50;25.83;;;9.00;87.50;;;;;;4913398;29;20477;-83
2021/11/08 18:01:24;;;;;;;33.80;23.40;;;8.90;86.70;;;;;;4991010;28;20950;-83
2021/11/08 18:34:44;;;;;;;133.93;127.53;;;9.00;91.00;;;;;;4797178;29;20581;-83
2021/11/08 18:37:50;;;;;;;155.63;148.67;;;9.00;91.00;;;;;;4871240;28;20457;-83
2021/11/08 18:40:48;;;;;;;194.07;186.27;;;8.90;91.40;;;;;;4917762;29;20489;-83
2021/11/08 18:43:29;;;;;;;;;;;;;;;;;;;;;
2021/11/08 18:46:03;;;;;;;222.33;212.97;;;8.80;93.10;;;;;;4883182;29;20465;-84
2021/11/08 18:48:46;;;;;;;;;;;;;;;;;;;;;
2021/11/08 18:51:13;;;;;;;202.90;193.20;;;9.00;93.20;;;;;;4990214;28;21048;-84
2021/11/08 18:53:56;;;;;;;197.20;188.70;;;8.80;92.90;;;;;;4995718;28;20478;-84
2021/11/08 18:56:27;;;;;;;165.17;157.40;;;8.90;92.80;;;;;;4995785;28;20454;-83
2021/11/08 18:59:15;;;;;;;160.07;152.27;;;8.90;92.40;;;;;;4995641;28;20563;-85
2021/11/08 19:02:09;;;;;;;161.07;153.23;;;8.90;92.10;;;;;;4963667;28;20457;-84
2021/11/08 19:05:09;;;;;;;148.07;141.77;;;8.90;92.40;;;;;;4992221;28;20462;-84
2021/11/08 19:07:46;;;;;;;149.87;143.27;;;8.90;92.20;;;;;;4995562;28;20465;-84
2021/11/08 19:10:17;;;;;;;142.17;135.17;;;9.00;92.10;;;;;;4995201;28;20992;-84
2021/11/08 19:12:50;;;;;;;141.17;134.37;;;9.00;92.00;;;;;;4995508;28;20454;-84
2021/11/08 19:15:23;;;;;;;165.07;157.10;;;8.90;91.90;;;;;;4995480;28;20457;-83
2021/11/08 19:18:02;;;;;;;144.63;137.43;;;9.00;92.40;;;;;;4995321;28;20968;-84
2021/11/08 19:20:42;;;;;;;127.80;120.97;;;9.00;92.20;;;;;;4993967;28;20464;-84
2021/11/08 19:23:10;;;;;;;114.13;108.10;;;8.90;91.50;;;;;;4995067;28;20516;-84
2021/11/08 19:25:42;;;;;;;117.93;112.07;;;9.10;91.20;;;;;;4995069;28;20450;-85
2021/11/08 19:28:16;;;;;;;132.80;125.37;;;9.00;91.50;;;;;;4994728;28;20945;-84
2021/11/08 19:30:48;;;;;;;128.10;120.87;;;9.00;91.80;;;;;;4995108;28;20500;-84
2021/11/08 19:33:41;;;;;;;135.43;128.70;;;9.00;91.70;;;;;;4994296;28;20486;-85
2021/11/08 19:39:03;;;;;;;137.87;131.17;;;9.00;92.00;;;;;;4994875;28;20437;-84
2021/11/08 19:41:39;;;;;;;129.97;123.93;;;8.90;92.00;;;;;;4994647;28;20453;-84
2021/11/08 19:44:51;;;;;;;116.13;109.93;;;9.00;92.10;;;;;;4994835;28;20798;-84
2021/11/08 19:47:42;;;;;;;148.47;141.17;;;9.10;92.20;;;;;;4994838;28;20465;-84
2021/11/08 19:50:54;;;;;;;151.63;143.57;;;9.00;92.50;;;;;;4993443;28;20600;-84
2021/11/08 19:53:23;;;;;;;119.13;111.83;;;9.00;92.20;;;;;;4994723;28;20484;-83
2021/11/08 19:55:55;;;;;;;115.13;108.00;;;9.00;91.60;;;;;;4994586;28;20840;-83
2021/11/08 19:58:23;;;;;;;101.63;95.83;;;8.90;91.30;;;;;;4994034;28;20486;-83
2021/11/08 20:00:52;;;;;;;118.20;111.80;;;9.00;91.10;;;;;;4994580;28;20557;-84
2021/11/08 20:03:26;;;;;;;158.00;150.90;;;9.00;91.00;;;;;;4994600;28;20470;-84
2021/11/08 20:05:58;;;;;;;120.60;114.40;;;9.00;91.90;;;;;;4993283;28;20458;-83
2021/11/08 20:08:26;;;;;;;118.50;112.47;;;8.90;91.70;;;;;;4994642;28;20496;-83
2021/11/08 20:11:00;;;;;;;138.50;132.07;;;8.90;91.70;;;;;;4994148;28;20572;-84
2021/11/08 20:16:21;;;;;;;90.80;85.57;;;8.80;91.30;;;;;;4973946;28;20438;-83
2021/11/08 20:19:05;;;;;;;91.87;86.57;;;8.90;91.00;;;;;;4993124;28;20454;-84
2021/11/08 20:21:40;;;;;;;77.23;72.37;;;8.90;91.00;;;;;;4959400;28;20968;-83
2021/11/08 20:24:08;;;;;;;94.43;88.03;;;9.00;91.00;;;;;;4994745;28;20518;-84
2021/11/08 20:26:36;;;;;;;121.33;115.73;;;8.90;91.00;;;;;;4995221;28;20529;-84
2021/11/08 20:29:17;;;;;;;141.87;135.47;;;8.90;91.90;;;;;;4990058;28;20509;-84
2021/11/08 20:31:51;;;;;;;160.83;152.53;;;9.10;92.30;;;;;;4995077;28;20953;-84
2021/11/08 20:37:47;;;;;;;177.80;168.93;;;8.80;92.70;;;;;;4994936;28;20453;-83
2021/11/08 20:40:33;;;;;;;;;;;;;;;;;;;;;
2021/11/08 20:43:49;;;;;;;177.10;168.70;;;8.70;92.40;;;;;;4943738;28;20457;-84
2021/11/08 20:46:34;;;;;;;215.83;207.13;;;8.80;92.60;;;;;;4994919;28;20954;-84
2021/11/08 20:52:23;;;;;;;187.53;179.53;;;8.70;92.80;;;;;;4994862;28;20445;-84
2021/11/08 20:55:00;;;;;;;174.20;166.10;;;8.80;92.60;;;;;;4994656;28;20489;-84
2021/11/08 20:57:49;;;;;;;172.17;164.57;;;8.70;92.30;;;;;;4994637;28;20513;-84
2021/11/08 21:00:25;;;;;;;154.03;146.83;;;8.60;92.40;;;;;;4994653;28;20455;-83
2021/11/08 21:03:19;;;;;;;151.60;144.07;;;8.70;92.20;;;;;;4994418;28;20797;-84
2021/11/08 21:05:55;;;;;;;134.67;127.67;;;8.60;92.20;;;;;;4993288;28;20464;-83
2021/11/08 21:08:42;;;;;;;122.37;116.37;;;8.70;92.00;;;;;;4994344;28;20462;-76
2021/11/08 21:14:26;;;;;;;169.57;160.97;;;8.80;92.30;;;;;;4993335;28;20450;-84
2021/11/08 21:16:56;;;;;;;162.20;153.90;;;8.80;92.60;;;;;;4994561;28;20477;-84
2021/11/08 21:19:25;;;;;;;158.63;150.00;;;8.90;92.40;;;;;;4993166;28;20446;-83
2021/11/08 21:21:52;;;;;;;159.30;151.23;;;8.80;92.30;;;;;;4994432;28;20453;-83
2021/11/08 21:24:26;;;;;;;138.97;130.07;;;8.80;92.40;;;;;;4994258;28;20876;-83
2021/11/08 21:26:59;;;;;;;140.10;132.63;;;8.90;92.20;;;;;;4994258;28;20480;-83
2021/11/08 21:29:31;;;;;;;170.93;161.80;;;8.90;92.50;;;;;;4994138;28;20818;-83
2021/11/08 21:40:31;;;;;;;162.47;153.77;;;8.80;92.80;;;;;;4993907;28;20553;-83
2021/11/08 21:43:00;;;;;;;156.40;148.17;;;8.80;92.70;;;;;;4993734;28;20458;-83
2021/11/08 21:45:27;;;;;;;137.23;130.63;;;8.70;92.30;;;;;;4993986;28;20446;-83
2021/11/08 21:47:56;;;;;;;156.13;147.93;;;8.70;92.10;;;;;;4993759;28;20992;-83
2021/11/08 21:50:42;;;;;;;261.00;249.00;;;8.70;92.50;;;;;;4992433;28;21075;-82
2021/11/08 21:53:15;;;;;;;297.30;285.10;;;8.60;93.80;;;;;;4993619;28;20974;-82
2021/11/08 21:55:47;;;;;;;321.13;307.20;;;8.60;94.50;;;;;;4993643;28;20466;-82
2021/11/08 21:58:14;;;;;;;307.03;293.37;;;8.60;95.10;;;;;;4993625;28;20552;-83
2021/11/08 22:01:19;;;;;;;285.40;273.57;;;8.60;95.10;;;;;;4993767;28;20515;-83
2021/11/08 22:03:49;;;;;;;223.27;214.00;;;8.40;94.80;;;;;;4993303;28;20454;-82
2021/11/08 22:06:20;;;;;;;219.63;209.73;;;8.50;94.00;;;;;;4993459;28;20517;-83
2021/11/08 22:08:49;;;;;;;244.23;233.83;;;8.60;94.00;;;;;;4993600;28;20450;-83
2021/11/08 22:11:18;;;;;;;263.27;252.27;;;8.60;94.20;;;;;;4993563;28;20486;-83
2021/11/08 22:13:47;;;;;;;289.43;276.23;;;8.40;95.20;;;;;;4993445;28;20454;-82
2021/11/08 22:16:17;;;;;;;307.50;292.90;;;8.40;96.20;;;;;;4993535;28;20512;-83
2021/11/08 22:18:45;;;;;;;326.97;313.10;;;8.30;96.30;;;;;;4993460;28;21003;-83
2021/11/08 22:21:17;;;;;;;332.30;317.73;;;8.30;96.30;;;;;;4992751;28;20545;-83
2021/11/08 22:23:44;;;;;;;342.17;327.47;;;8.20;96.40;;;;;;4993419;28;20545;-83
2021/11/08 22:26:11;;;;;;;317.60;303.10;;;8.20;96.50;;;;;;4993342;28;20530;-83
2021/11/08 22:28:38;;;;;;;304.23;291.10;;;8.20;96.20;;;;;;4993634;28;20590;-83
2021/11/08 22:31:07;;;;;;;321.13;307.33;;;8.10;96.10;;;;;;4993247;28;20521;-83
2021/11/08 22:33:35;;;;;;;332.83;318.43;;;8.00;95.90;;;;;;4993278;28;20454;-83
2021/11/08 22:36:06;;;;;;;364.03;348.43;;;7.90;96.20;;;;;;4992168;28;20950;-83
2021/11/08 22:38:39;;;;;;;388.57;371.03;;;7.70;96.80;;;;;;4993272;28;20450;-83
2021/11/08 22:41:09;;;;;;;410.47;390.90;;;7.60;97.10;;;;;;4993187;28;20468;-83
2021/11/08 22:43:36;;;;;;;428.30;408.37;;;7.50;97.80;;;;;;4993177;28;20536;-82
2021/11/08 22:46:03;;;;;;;480.47;457.50;;;7.40;97.80;;;;;;4993197;28;20520;-83
2021/11/08 22:48:34;;;;;;;507.00;482.43;;;7.40;98.40;;;;;;4993546;28;20454;-82
2021/11/08 22:51:04;;;;;;;514.07;488.47;;;7.30;99.10;;;;;;4991907;28;20585;-83
2021/11/08 22:53:31;;;;;;;552.57;523.07;;;7.20;99.30;;;;;;4992929;28;20484;-83
2021/11/08 22:55:59;;;;;;;571.97;541.57;;;7.10;99.90;;;;;;4993360;28;20485;-83
2021/11/08 22:58:28;;;;;;;587.37;555.97;;;7.00;99.90;;;;;;4993109;28;20478;-82
2021/11/08 23:00:58;;;;;;;620.67;583.37;;;6.90;99.90;;;;;;4993160;28;20516;-83
2021/11/08 23:03:26;;;;;;;629.33;591.73;;;6.80;99.90;;;;;;4993114;28;20458;-82
2021/11/08 23:05:56;;;;;;;654.40;614.70;;;6.80;99.90;;;;;;4991794;28;20461;-82
2021/11/08 23:08:23;;;;;;;669.73;627.47;;;6.60;99.90;;;;;;4996802;28;20454;-83
2021/11/08 23:10:51;;;;;;;670.43;628.83;;;6.70;99.90;;;;;;4996667;28;20516;-82
2021/11/08 23:13:21;;;;;;;668.60;625.60;;;6.60;99.90;;;;;;4996649;28;20941;-82
2021/11/08 23:15:52;;;;;;;675.73;633.43;;;6.50;99.90;;;;;;4996607;28;20878;-83
2021/11/08 23:18:22;;;;;;;672.37;629.47;;;6.40;99.90;;;;;;4996679;28;20472;-82
2021/11/08 23:20:49;;;;;;;688.07;643.97;;;6.20;99.90;;;;;;4995374;28;20481;-83
2021/11/08 23:23:16;;;;;;;730.20;683.50;;;6.30;99.90;;;;;;4996746;28;20485;-82
2021/11/08 23:25:45;;;;;;;724.33;675.93;;;6.30;99.90;;;;;;4996439;28;20457;-82
2021/11/08 23:28:14;;;;;;;716.03;668.27;;;6.30;99.90;;;;;;4996356;28;20466;-82
2021/11/08 23:30:42;;;;;;;710.37;663.73;;;6.30;99.90;;;;;;4996243;28;20536;-82
2021/11/08 23:33:10;;;;;;;712.83;666.13;;;6.10;99.90;;;;;;4996422;28;20834;-82
2021/11/08 23:35:44;;;;;;;725.90;677.20;;;6.10;99.90;;;;;;4995060;28;21027;-82
2021/11/08 23:38:13;;;;;;;740.13;691.47;;;5.90;99.90;;;;;;4996271;28;20822;-82
2021/11/08 23:40:41;;;;;;;770.07;720.10;;;5.90;99.90;;;;;;4996298;28;20462;-82
2021/11/08 23:43:09;;;;;;;769.93;718.03;;;5.90;99.90;;;;;;4996302;28;20540;-82
2021/11/08 23:45:37;;;;;;;785.10;732.30;;;5.90;99.90;;;;;;4995975;28;20457;-82
2021/11/08 23:48:08;;;;;;;799.07;744.37;;;5.80;99.90;;;;;;4996017;28;20961;-82
2021/11/08 23:50:35;;;;;;;797.80;744.93;;;5.80;99.90;;;;;;4994950;28;20470;-82
2021/11/08 23:53:02;;;;;;;813.37;757.17;;;5.50;99.90;;;;;;4995896;28;20561;-82
2021/11/08 23:55:30;;;;;;;836.10;777.30;;;5.30;99.90;;;;;;4995984;28;20977;-82
2021/11/08 23:57:57;;;;;;;833.57;771.60;;;5.10;99.90;;;;;;4995903;28;20466;-82
